M I D A S
Marine Information and Data Acquisition System
Tripno 447 of the Zeeleeuw from 2003-03-18 07:55:48 to 2003-03-18 14:00:53
Back to CruiseResearch ActivitiesStationsMapUnderway DataData graphs

EquipmentUnitsComments
TimeDGPSUTC
LatitudeDGPSDM.mWGS84
LongitudeDGPSDM.mWGS84
SpeedMeteo Stationm/sRelative wind speed
DirectionMeteo StationdegRelative wind direction
TemperatureMeteo Stationdeg CelciusAir temperature
PressureMeteo StationPaAtmospheric pressure
HumidityMeteo Station%Relative humidity
Missing or incorrect values are displayed as -999
Metereological data collected by the RV Zeeleeuw from 2003-03-18 07:55:48 to 2003-03-18 14:00:53
                                                                                    Next 1000 lines
Time Latitude Longitude Speed Direction Temperature Pressure Humidity
2003-03-18 07:55:58 51°13.68 2°55.911 2.9 75 5.3 103480 85
2003-03-18 07:56:02 51°13.68 2°55.911 2.3 67 5.3 103480 85
2003-03-18 07:56:08 51°13.681 2°55.911 4.4 50 5.3 103480 85
2003-03-18 07:56:12 51°13.681 2°55.911 3.2 46 5.3 103490 85
2003-03-18 07:56:18 51°13.681 2°55.911 3.1 319 5.3 103490 85
2003-03-18 07:56:22 51°13.681 2°55.911 2.2 28 5.3 103480 85
2003-03-18 07:56:28 51°13.681 2°55.911 2.5 30 5.3 103480 85
2003-03-18 07:56:33 51°13.681 2°55.912 1.5 29 5.3 103490 85
2003-03-18 07:56:38 51°13.68 2°55.913 2.6 10 5.3 103490 85
2003-03-18 07:56:42 51°13.68 2°55.913 3.4 26 5.3 103490 85
2003-03-18 07:56:48 51°13.68 2°55.914 1.7 92 5.3 103490 85
2003-03-18 07:56:52 51°13.68 2°55.914 3.6 53 5.3 103480 85
2003-03-18 07:56:58 51°13.68 2°55.913 3.4 317 5.3 103480 85
2003-03-18 07:57:02 51°13.681 2°55.913 3.7 54 5.3 103480 85
2003-03-18 07:57:08 51°13.681 2°55.911 3.1 57 5.3 103480 85
2003-03-18 07:57:12 51°13.681 2°55.909 3.6 317 5.3 103480 85
2003-03-18 07:57:18 51°13.682 2°55.906 3.5 91 5.3 103480 85
2003-03-18 07:57:23 51°13.683 2°55.904 4.7 69 5.3 103480 85
2003-03-18 07:57:27 51°13.682 2°55.901 5.3 49 5.3 103480 85
2003-03-18 07:57:34 51°13.683 2°55.895 5.2 46 5.3 103480 85
2003-03-18 07:57:38 51°13.683 2°55.891 3.4 319 5.3 103480 85
2003-03-18 07:57:44 51°13.685 2°55.884 4.5 26 5.3 103480 85
2003-03-18 07:57:50 51°13.685 2°55.877 2.6 82 5.3 103480 85
2003-03-18 07:57:54 51°13.685 2°55.872 1.9 49 5.3 103490 85
2003-03-18 07:57:59 51°13.686 2°55.865 1.5 103 5.3 103490 85
2003-03-18 07:58:04 51°13.687 2°55.857 2.5 57 5.3 103490 85
2003-03-18 07:58:10 51°13.687 2°55.848 2.3 27 5.3 103490 85
2003-03-18 07:58:14 51°13.687 2°55.841 1.4 100 5.3 103480 85
2003-03-18 07:58:19 51°13.687 2°55.833 1 18 5.3 103480 85
2003-03-18 07:58:24 51°13.687 2°55.824 0.6 38 5.3 103490 85
2003-03-18 07:58:29 51°13.686 2°55.817 0.7 119 5.3 103490 85
2003-03-18 07:58:34 51°13.686 2°55.81 0.6 58 5.3 103490 85
2003-03-18 07:58:38 51°13.687 2°55.804 2 21 5.3 103490 85
2003-03-18 07:58:44 51°13.687 2°55.796 2 1 5.3 103490 85
2003-03-18 07:58:49 51°13.686 2°55.788 2.6 25 5.3 103490 85
2003-03-18 07:58:54 51°13.685 2°55.781 2.2 11 5.4 103490 85
2003-03-18 07:58:59 51°13.684 2°55.773 1.8 12 5.4 103490 85
2003-03-18 07:59:04 51°13.684 2°55.767 1.2 59 5.4 103490 85
2003-03-18 07:59:09 51°13.683 2°55.76 2.2 341 5.4 103490 85
2003-03-18 07:59:14 51°13.683 2°55.755 3.2 11 5.4 103490 85
2003-03-18 07:59:18 51°13.683 2°55.752 2.9 355 5.4 103490 85
2003-03-18 07:59:22 51°13.683 2°55.75 3.6 12 5.4 103490 85
2003-03-18 07:59:28 51°13.683 2°55.748 3.7 341 5.4 103490 85
2003-03-18 07:59:33 51°13.683 2°55.746 3.5 345 5.4 103490 85
2003-03-18 07:59:38 51°13.684 2°55.746 3.3 349 5.4 103490 85
2003-03-18 07:59:43 51°13.685 2°55.745 3.2 344 5.4 103480 85
2003-03-18 07:59:48 51°13.686 2°55.746 3.2 343 5.4 103480 85
2003-03-18 07:59:53 51°13.687 2°55.746 4.3 344 5.4 103490 85
2003-03-18 07:59:58 51°13.689 2°55.747 4.5 334 5.4 103490 85
2003-03-18 08:00:03 51°13.69 2°55.748 3.5 320 5.4 103490 85
2003-03-18 08:00:08 51°13.692 2°55.749 4.7 320 5.4 103490 85
2003-03-18 08:00:13 51°13.694 2°55.749 5.1 322 5.4 103490 85
2003-03-18 08:00:18 51°13.697 2°55.75 3.6 315 5.4 103490 85
2003-03-18 08:00:23 51°13.7 2°55.749 3.5 304 5.3 103480 85
2003-03-18 08:00:28 51°13.703 2°55.749 4.3 297 5.3 103480 85
2003-03-18 08:00:33 51°13.706 2°55.749 4 286 5.3 103480 85
2003-03-18 08:00:38 51°13.71 2°55.748 3.6 308 5.3 103480 85
2003-03-18 08:00:43 51°13.715 2°55.747 3.2 308 5.3 103480 85
2003-03-18 08:00:48 51°13.72 2°55.745 2.9 313 5.3 103480 85
2003-03-18 08:00:53 51°13.725 2°55.741 3 306 5.3 103490 84
2003-03-18 08:00:58 51°13.731 2°55.737 2.9 312 5.3 103490 84
2003-03-18 08:01:02 51°13.735 2°55.733 2.2 351 5.3 103480 85
2003-03-18 08:01:08 51°13.742 2°55.726 3.8 326 5.3 103480 85
2003-03-18 08:01:13 51°13.747 2°55.72 3.8 321 5.3 103480 85
2003-03-18 08:01:18 51°13.754 2°55.712 3.5 332 5.3 103480 85
2003-03-18 08:01:22 51°13.759 2°55.706 3.9 328 5.3 103480 85
2003-03-18 08:01:28 51°13.768 2°55.697 3.9 334 5.3 103480 85
2003-03-18 08:01:32 51°13.774 2°55.69 4.7 330 5.3 103480 85
2003-03-18 08:01:38 51°13.783 2°55.678 6.5 341 5.3 103480 85
2003-03-18 08:01:42 51°13.79 2°55.67 5.7 346 5.3 103480 85
2003-03-18 08:01:48 51°13.802 2°55.658 4.2 328 5.3 103480 85
2003-03-18 08:01:53 51°13.813 2°55.649 4.5 324 5.2 103480 85
2003-03-18 08:01:58 51°13.824 2°55.639 7.5 333 5.2 103480 85
2003-03-18 08:02:02 51°13.834 2°55.632 7.6 332 5.2 103480 85
2003-03-18 08:02:08 51°13.848 2°55.622 7.9 320 5.2 103480 85
2003-03-18 08:02:12 51°13.858 2°55.615 7.5 318 5.2 103490 85
2003-03-18 08:02:18 51°13.872 2°55.604 7.6 331 5.2 103490 85
2003-03-18 08:02:22 51°13.881 2°55.597 8.4 326 5.2 103480 85
2003-03-18 08:02:28 51°13.895 2°55.586 7.8 320 5.2 103480 85
2003-03-18 08:02:33 51°13.907 2°55.577 7.7 322 5.2 103470 85
2003-03-18 08:02:38 51°13.92 2°55.568 6.7 319 5.2 103470 85
2003-03-18 08:02:42 51°13.931 2°55.562 6.4 318 5.2 103470 85
2003-03-18 08:02:48 51°13.947 2°55.551 7.2 326 5.2 103470 85
2003-03-18 08:02:52 51°13.957 2°55.544 8 322 5.2 103480 85
2003-03-18 08:02:58 51°13.973 2°55.534 8.3 315 5.2 103480 85
2003-03-18 08:03:03 51°13.985 2°55.524 8.6 314 5.2 103480 85
2003-03-18 08:03:08 51°13.997 2°55.515 6.8 329 5.2 103480 85
2003-03-18 08:03:13 51°14.01 2°55.506 7 311 5.2 103480 85
2003-03-18 08:03:18 51°14.022 2°55.497 6.7 326 5.2 103480 85
2003-03-18 08:03:23 51°14.034 2°55.487 7.1 325 5.2 103480 85
2003-03-18 08:03:27 51°14.044 2°55.48 7.8 312 5.2 103480 85
2003-03-18 08:03:33 51°14.058 2°55.469 6.6 331 5.1 103470 85
2003-03-18 08:03:38 51°14.07 2°55.46 9.4 316 5.1 103470 85
2003-03-18 08:03:43 51°14.082 2°55.451 8.1 304 5.1 103470 85
2003-03-18 08:03:48 51°14.095 2°55.442 7.7 322 5.1 103470 85
2003-03-18 08:03:53 51°14.107 2°55.433 7.4 315 5.1 103480 85
2003-03-18 08:03:58 51°14.12 2°55.423 9.1 306 5.1 103480 85
2003-03-18 08:04:03 51°14.132 2°55.414 8.6 310 5.1 103480 85
2003-03-18 08:04:08 51°14.144 2°55.404 7.7 316 5.1 103480 85
2003-03-18 08:04:13 51°14.156 2°55.394 8.2 303 5.1 103480 85
2003-03-18 08:04:18 51°14.168 2°55.385 7.8 305 5.1 103480 85
2003-03-18 08:04:22 51°14.177 2°55.376 9.2 296 5.1 103480 85
2003-03-18 08:04:28 51°14.19 2°55.363 7.1 303 5.1 103480 85
2003-03-18 08:04:33 51°14.201 2°55.351 7.7 287 5.1 103480 85
2003-03-18 08:04:38 51°14.212 2°55.338 7.1 293 5.1 103480 85
2003-03-18 08:04:43 51°14.222 2°55.325 6.6 291 5.1 103480 85
2003-03-18 08:04:47 51°14.23 2°55.314 6.5 292 5.1 103480 85
2003-03-18 08:04:53 51°14.242 2°55.297 6.1 296 5.1 103480 85
2003-03-18 08:04:58 51°14.251 2°55.283 7.4 296 5.1 103480 85
2003-03-18 08:05:02 51°14.258 2°55.271 5.8 298 5 103470 86
2003-03-18 08:05:08 51°14.269 2°55.252 5.8 313 5 103470 86
2003-03-18 08:05:13 51°14.277 2°55.236 6.1 303 5 103480 86
2003-03-18 08:05:18 51°14.285 2°55.219 6.3 292 5 103480 86
2003-03-18 08:05:23 51°14.293 2°55.202 6.1 289 5.1 103480 86
2003-03-18 08:05:28 51°14.301 2°55.185 7.1 288 5.1 103480 86
2003-03-18 08:05:33 51°14.309 2°55.169 5.4 283 5.1 103480 86
2003-03-18 08:05:38 51°14.317 2°55.151 5 313 5.1 103480 86
2003-03-18 08:05:42 51°14.323 2°55.137 6.6 280 5 103490 86
2003-03-18 08:05:48 51°14.332 2°55.115 5.6 292 5 103490 86
2003-03-18 08:05:53 51°14.339 2°55.095 4.7 296 5.1 103480 86
2003-03-18 08:05:58 51°14.345 2°55.075 4.9 268 5.1 103480 86
2003-03-18 08:06:02 51°14.351 2°55.059 4.4 321 5.1 103480 86
2003-03-18 08:06:08 51°14.36 2°55.034 6.9 264 5.1 103480 86
2003-03-18 08:06:13 51°14.366 2°55.012 6.9 267 5 103480 86
2003-03-18 08:06:18 51°14.372 2°54.99 6.3 262 5 103480 86
2003-03-18 08:06:23 51°14.379 2°54.967 6.2 267 5 103480 86
2003-03-18 08:06:28 51°14.384 2°54.942 6.1 277 5 103480 86
2003-03-18 08:06:33 51°14.389 2°54.918 6.2 270 5 103480 86
2003-03-18 08:06:38 51°14.394 2°54.892 5.8 266 5 103480 86
2003-03-18 08:06:42 51°14.398 2°54.872 6 267 5 103470 86
2003-03-18 08:06:48 51°14.404 2°54.84 5.3 278 5 103470 86
2003-03-18 08:06:53 51°14.408 2°54.813 6.1 277 5 103480 86
2003-03-18 08:06:58 51°14.412 2°54.786 5.8 272 5 103480 86
2003-03-18 08:07:02 51°14.416 2°54.764 5.8 272 5 103480 87
2003-03-18 08:07:08 51°14.422 2°54.731 6.5 274 5 103480 87
2003-03-18 08:07:13 51°14.426 2°54.704 5.6 280 5 103480 87
2003-03-18 08:07:18 51°14.431 2°54.677 5 282 5 103480 87
2003-03-18 08:07:22 51°14.436 2°54.656 5.7 277 5 103480 87
2003-03-18 08:07:28 51°14.445 2°54.625 5.9 282 5 103480 87
2003-03-18 08:07:32 51°14.451 2°54.604 6 281 5 103470 87
2003-03-18 08:07:38 51°14.46 2°54.574 6.8 284 5 103470 87
2003-03-18 08:07:42 51°14.467 2°54.554 7.4 289 5 103480 87
2003-03-18 08:07:48 51°14.478 2°54.525 7 286 5 103480 87
2003-03-18 08:07:53 51°14.488 2°54.502 7.3 292 5 103480 87
2003-03-18 08:07:58 51°14.499 2°54.479 8.7 302 5 103480 87
2003-03-18 08:08:04 51°14.513 2°54.453 10 298 5 103480 87
2003-03-18 08:08:08 51°14.523 2°54.437 10.2 300 5 103480 87
2003-03-18 08:08:12 51°14.534 2°54.42 9.7 299 4.9 103470 87
2003-03-18 08:08:18 51°14.55 2°54.398 10 299 4.9 103470 87
2003-03-18 08:08:23 51°14.563 2°54.38 10.1 305 5 103480 87
2003-03-18 08:08:28 51°14.577 2°54.364 11.6 306 5 103480 87
2003-03-18 08:08:33 51°14.592 2°54.348 10.9 305 5 103470 87
2003-03-18 08:08:38 51°14.608 2°54.333 11.7 303 5 103470 87
2003-03-18 08:08:41 51°14.617 2°54.324 11.8 304 4.9 103460 87
2003-03-18 08:08:48 51°14.639 2°54.302 11 303 4.9 103460 87
2003-03-18 08:08:52 51°14.652 2°54.289 11.2 302 4.9 103460 87
2003-03-18 08:08:58 51°14.67 2°54.271 10.8 306 4.9 103460 87
2003-03-18 08:09:03 51°14.685 2°54.256 10.6 308 4.9 103460 87
2003-03-18 08:09:08 51°14.701 2°54.242 11.6 308 4.9 103460 87
2003-03-18 08:09:12 51°14.714 2°54.23 11.7 303 4.9 103460 87
2003-03-18 08:09:18 51°14.733 2°54.214 11.4 306 4.9 103460 87
2003-03-18 08:09:23 51°14.75 2°54.2 11.7 306 4.9 103460 87
2003-03-18 08:09:28 51°14.766 2°54.187 11.1 308 4.9 103460 87
2003-03-18 08:09:33 51°14.783 2°54.173 11.3 308 4.9 103460 87
2003-03-18 08:09:38 51°14.799 2°54.161 12.2 306 4.9 103460 87
2003-03-18 08:09:42 51°14.813 2°54.15 11.9 305 4.9 103450 87
2003-03-18 08:09:48 51°14.832 2°54.133 11.7 302 4.9 103450 87
2003-03-18 08:09:53 51°14.849 2°54.119 11.2 307 4.9 103460 87
2003-03-18 08:09:58 51°14.864 2°54.105 10.4 304 4.9 103460 87
2003-03-18 08:10:02 51°14.877 2°54.094 10.6 311 4.9 103460 87
2003-03-18 08:10:08 51°14.896 2°54.078 11.6 309 4.9 103460 87
2003-03-18 08:10:12 51°14.909 2°54.067 11.5 308 4.9 103460 87
2003-03-18 08:10:18 51°14.928 2°54.051 11.7 312 4.9 103460 87
2003-03-18 08:10:23 51°14.944 2°54.038 11.7 309 4.9 103460 88
2003-03-18 08:10:28 51°14.96 2°54.025 11.6 308 4.9 103460 88
2003-03-18 08:10:33 51°14.976 2°54.012 11.9 310 5 103460 88
2003-03-18 08:10:38 51°14.992 2°54 11.8 306 5 103460 88
2003-03-18 08:10:43 51°15.009 2°53.987 11.4 306 5 103460 88
2003-03-18 08:10:48 51°15.025 2°53.973 11.3 307 5 103460 88
2003-03-18 08:10:53 51°15.041 2°53.96 10.9 307 5 103460 88
2003-03-18 08:10:58 51°15.057 2°53.946 11.3 313 5 103460 88
2003-03-18 08:11:02 51°15.069 2°53.935 11.5 309 5 103460 88
2003-03-18 08:11:08 51°15.088 2°53.918 12 312 5 103460 88
2003-03-18 08:11:13 51°15.104 2°53.905 11.8 310 4.9 103460 88
2003-03-18 08:11:18 51°15.12 2°53.892 11.7 313 4.9 103460 88
2003-03-18 08:11:23 51°15.136 2°53.879 11.9 312 5 103470 88
2003-03-18 08:11:28 51°15.153 2°53.865 12.1 313 5 103470 88
2003-03-18 08:11:33 51°15.169 2°53.852 11.4 316 5 103460 88
2003-03-18 08:11:38 51°15.185 2°53.839 13 309 5 103460 88
2003-03-18 08:11:41 51°15.195 2°53.831 13.2 308 5 103460 88
2003-03-18 08:11:48 51°15.218 2°53.812 12.4 313 5 103460 88
2003-03-18 08:11:52 51°15.231 2°53.801 13 309 5 103470 88
2003-03-18 08:11:58 51°15.251 2°53.785 12.7 310 5 103470 88
2003-03-18 08:12:03 51°15.267 2°53.772 12.5 309 5 103460 88
2003-03-18 08:12:08 51°15.283 2°53.757 12.2 310 5 103460 88
2003-03-18 08:12:13 51°15.299 2°53.742 11.9 309 5 103460 88
2003-03-18 08:12:18 51°15.315 2°53.727 11.7 309 5 103460 88
2003-03-18 08:12:22 51°15.328 2°53.714 11.4 309 5 103460 88
2003-03-18 08:12:28 51°15.347 2°53.697 11.7 308 5 103460 88
2003-03-18 08:12:33 51°15.363 2°53.682 12.5 308 5 103460 88
2003-03-18 08:12:38 51°15.379 2°53.669 12 310 5 103460 88
2003-03-18 08:12:42 51°15.393 2°53.658 11.1 312 5 103460 88
2003-03-18 08:12:48 51°15.412 2°53.641 11.3 308 5 103460 88
2003-03-18 08:12:52 51°15.426 2°53.628 12.1 307 4.9 103460 88
2003-03-18 08:12:58 51°15.445 2°53.61 11.4 308 4.9 103460 88
2003-03-18 08:13:03 51°15.461 2°53.596 12.3 310 5 103460 88
2003-03-18 08:13:08 51°15.477 2°53.582 11.8 306 5 103460 88
2003-03-18 08:13:13 51°15.494 2°53.567 11.3 306 4.9 103460 88
2003-03-18 08:13:18 51°15.51 2°53.553 11.9 304 4.9 103460 88
2003-03-18 08:13:23 51°15.527 2°53.538 11.3 304 4.9 103460 88
2003-03-18 08:13:28 51°15.543 2°53.522 11 306 4.9 103460 88
2003-03-18 08:13:33 51°15.559 2°53.507 11.2 310 4.9 103460 88
2003-03-18 08:13:38 51°15.576 2°53.491 11.5 310 4.9 103460 88
2003-03-18 08:13:43 51°15.592 2°53.475 10.6 311 5 103460 88
2003-03-18 08:13:48 51°15.608 2°53.46 11.2 316 5 103460 88
2003-03-18 08:13:53 51°15.625 2°53.444 10.8 320 5 103460 88
2003-03-18 08:13:58 51°15.641 2°53.429 11.9 313 5 103460 88
2003-03-18 08:14:02 51°15.654 2°53.417 11.7 316 5 103460 88
2003-03-18 08:14:08 51°15.673 2°53.398 12 312 5 103460 88
2003-03-18 08:14:13 51°15.69 2°53.383 11.6 315 5 103460 88
2003-03-18 08:14:18 51°15.706 2°53.371 12.4 316 5 103460 88
2003-03-18 08:14:22 51°15.72 2°53.361 12.9 316 5 103460 88
2003-03-18 08:14:28 51°15.74 2°53.348 12.7 317 5 103460 88
2003-03-18 08:14:33 51°15.757 2°53.338 12.7 316 5 103460 88
2003-03-18 08:14:38 51°15.775 2°53.33 12.2 320 5 103460 88
2003-03-18 08:14:43 51°15.792 2°53.321 12.2 316 5 103460 88
2003-03-18 08:14:48 51°15.81 2°53.313 11.9 318 5 103460 88
2003-03-18 08:14:53 51°15.827 2°53.307 12.6 316 5 103460 88
2003-03-18 08:14:58 51°15.845 2°53.3 11.9 315 5 103460 88
2003-03-18 08:15:02 51°15.859 2°53.294 12.6 318 5 103460 88
2003-03-18 08:15:08 51°15.879 2°53.283 12.2 315 5 103460 88
2003-03-18 08:15:13 51°15.897 2°53.275 12.4 316 5 103460 88
2003-03-18 08:15:18 51°15.914 2°53.265 12.4 314 5 103460 88
2003-03-18 08:15:22 51°15.928 2°53.258 11.8 316 5 103460 88
2003-03-18 08:15:28 51°15.948 2°53.246 12.7 313 5 103460 88
2003-03-18 08:15:33 51°15.966 2°53.236 13.1 311 5 103460 88
2003-03-18 08:15:38 51°15.983 2°53.226 12.5 310 5 103460 88
2003-03-18 08:15:43 51°16 2°53.216 12.2 312 5 103460 88
2003-03-18 08:15:48 51°16.018 2°53.205 12.1 309 5 103460 88
2003-03-18 08:15:53 51°16.035 2°53.196 11.6 317 5 103460 88
2003-03-18 08:15:58 51°16.053 2°53.186 11.4 318 5 103460 88
2003-03-18 08:16:03 51°16.07 2°53.178 12.4 316 5 103450 88
2003-03-18 08:16:08 51°16.088 2°53.169 12.7 315 5 103450 88
2003-03-18 08:16:13 51°16.106 2°53.159 12.6 312 5 103460 88
2003-03-18 08:16:18 51°16.123 2°53.149 12.4 311 5 103460 88
2003-03-18 08:16:22 51°16.137 2°53.141 12.1 312 5 103460 88
2003-03-18 08:16:28 51°16.158 2°53.128 12.4 314 5 103460 88
2003-03-18 08:16:33 51°16.175 2°53.118 11.2 317 5 103460 88
2003-03-18 08:16:38 51°16.192 2°53.109 11.6 320 5 103460 88
2003-03-18 08:16:42 51°16.206 2°53.101 12.2 318 5 103460 88
2003-03-18 08:16:48 51°16.227 2°53.09 12.4 317 5 103460 88
2003-03-18 08:16:53 51°16.244 2°53.08 12.4 312 5 103460 88
2003-03-18 08:16:58 51°16.261 2°53.07 12.6 310 5 103460 88
2003-03-18 08:17:02 51°16.275 2°53.063 12 313 5 103460 88
2003-03-18 08:17:08 51°16.296 2°53.051 12 311 5 103460 88
2003-03-18 08:17:13 51°16.313 2°53.04 11.9 313 5.1 103460 88
2003-03-18 08:17:18 51°16.33 2°53.03 11.6 314 5.1 103460 88
2003-03-18 08:17:22 51°16.344 2°53.023 11.6 320 5.1 103450 88
2003-03-18 08:17:28 51°16.365 2°53.011 12.5 317 5.1 103450 88
2003-03-18 08:17:33 51°16.383 2°53.001 12.9 316 5.1 103460 88
2003-03-18 08:17:38 51°16.4 2°52.991 12.3 322 5.1 103460 88
2003-03-18 08:17:43 51°16.418 2°52.981 11.5 319 5.1 103460 88
2003-03-18 08:17:48 51°16.435 2°52.971 12.6 314 5.1 103460 88
2003-03-18 08:17:53 51°16.453 2°52.961 12.2 317 5.1 103460 88
2003-03-18 08:17:58 51°16.47 2°52.951 12.6 313 5.1 103460 88
2003-03-18 08:18:03 51°16.487 2°52.942 12.5 312 5.1 103460 88
2003-03-18 08:18:08 51°16.505 2°52.932 12.7 315 5.1 103460 88
2003-03-18 08:18:13 51°16.522 2°52.923 12.2 313 5.1 103460 88
2003-03-18 08:18:18 51°16.539 2°52.913 12.1 319 5.1 103460 88
2003-03-18 08:18:22 51°16.553 2°52.905 12.7 316 5.1 103460 88
2003-03-18 08:18:28 51°16.574 2°52.894 12.3 313 5.1 103460 88
2003-03-18 08:18:32 51°16.587 2°52.886 11.9 314 5.1 103460 88
2003-03-18 08:18:38 51°16.608 2°52.875 11.8 318 5.1 103460 88
2003-03-18 08:18:42 51°16.622 2°52.867 12.2 315 5.1 103470 88
2003-03-18 08:18:48 51°16.643 2°52.857 11.9 312 5.1 103470 88
2003-03-18 08:18:53 51°16.66 2°52.847 11.1 320 5.1 103460 88
2003-03-18 08:18:58 51°16.677 2°52.838 11.6 312 5.1 103460 88
2003-03-18 08:19:03 51°16.694 2°52.828 12.8 314 5.1 103460 88
2003-03-18 08:19:08 51°16.711 2°52.819 12.3 312 5.1 103460 88
2003-03-18 08:19:13 51°16.728 2°52.809 11.9 315 5.1 103460 88
2003-03-18 08:19:18 51°16.746 2°52.8 11.1 313 5.1 103460 88
2003-03-18 08:19:23 51°16.763 2°52.79 11.8 311 5.1 103460 88
2003-03-18 08:19:28 51°16.78 2°52.781 11.2 315 5.1 103460 88
2003-03-18 08:19:33 51°16.797 2°52.772 12.3 314 5.1 103460 88
2003-03-18 08:19:38 51°16.814 2°52.763 12 316 5.1 103460 88
2003-03-18 08:19:42 51°16.827 2°52.756 12.5 316 5.1 103470 88
2003-03-18 08:19:48 51°16.847 2°52.745 12.3 313 5.1 103470 88
2003-03-18 08:19:53 51°16.863 2°52.736 11.6 316 5.1 103460 88
2003-03-18 08:19:58 51°16.88 2°52.726 12.1 313 5.1 103460 88
2003-03-18 08:20:02 51°16.893 2°52.719 12 312 5.1 103460 88
2003-03-18 08:20:08 51°16.913 2°52.708 11.9 312 5.1 103460 88
2003-03-18 08:20:13 51°16.93 2°52.699 11.8 315 5.1 103460 88
2003-03-18 08:20:18 51°16.946 2°52.689 11.5 317 5.1 103460 88
2003-03-18 08:20:22 51°16.96 2°52.682 11.1 321 5.1 103460 88
2003-03-18 08:20:28 51°16.98 2°52.67 12.5 317 5.1 103460 88
2003-03-18 08:20:33 51°16.997 2°52.661 12.3 314 5.1 103460 88
2003-03-18 08:20:38 51°17.014 2°52.652 12.5 315 5.1 103460 88
2003-03-18 08:20:42 51°17.028 2°52.644 11.6 314 5.1 103460 88
2003-03-18 08:20:48 51°17.049 2°52.632 11.5 312 5.1 103460 88
2003-03-18 08:20:53 51°17.066 2°52.623 11.6 311 5.1 103460 88
2003-03-18 08:20:58 51°17.083 2°52.613 11 318 5.1 103460 88
2003-03-18 08:21:03 51°17.1 2°52.604 11.5 318 5.1 103460 88
2003-03-18 08:21:08 51°17.117 2°52.594 11.3 322 5.1 103460 88
2003-03-18 08:21:13 51°17.134 2°52.585 11.8 317 5.1 103460 88
2003-03-18 08:21:18 51°17.151 2°52.576 12.2 317 5.1 103460 88
2003-03-18 08:21:24 51°17.171 2°52.565 12.4 316 5.1 103460 88
2003-03-18 08:21:29 51°17.188 2°52.555 11.4 318 5.1 103460 88
2003-03-18 08:21:34 51°17.205 2°52.546 11.7 316 5.2 103460 88
2003-03-18 08:21:38 51°17.218 2°52.538 11.7 317 5.2 103460 88
2003-03-18 08:21:44 51°17.238 2°52.526 11.6 318 5.2 103470 88
2003-03-18 08:21:49 51°17.255 2°52.517 11.3 314 5.2 103470 88
2003-03-18 08:21:54 51°17.272 2°52.506 11.6 313 5.2 103470 88
2003-03-18 08:21:58 51°17.286 2°52.499 11.1 317 5.2 103470 88
2003-03-18 08:22:03 51°17.303 2°52.488 11.6 318 5.1 103460 88
2003-03-18 08:22:08 51°17.32 2°52.479 12.4 320 5.1 103460 88
2003-03-18 08:22:14 51°17.341 2°52.469 12.5 319 5.2 103470 88
2003-03-18 08:22:19 51°17.358 2°52.461 12.7 319 5.2 103470 88
2003-03-18 08:22:24 51°17.375 2°52.453 11.5 317 5.2 103470 88
2003-03-18 08:22:28 51°17.389 2°52.448 11.9 325 5.2 103470 88
2003-03-18 08:22:34 51°17.41 2°52.439 12 322 5.2 103470 88
2003-03-18 08:22:38 51°17.424 2°52.434 12 318 5.2 103470 88
2003-03-18 08:22:43 51°17.441 2°52.427 12.3 319 5.1 103470 88
2003-03-18 08:22:49 51°17.462 2°52.418 11.7 322 5.1 103470 88
2003-03-18 08:22:54 51°17.48 2°52.411 12.7 320 5.2 103460 88
2003-03-18 08:22:58 51°17.494 2°52.404 11.4 318 5.2 103460 88
2003-03-18 08:23:04 51°17.515 2°52.396 12.3 319 5.2 103470 88
2003-03-18 08:23:08 51°17.529 2°52.39 11.5 324 5.2 103470 88
2003-03-18 08:23:14 51°17.55 2°52.381 11.2 322 5.2 103470 88
2003-03-18 08:23:18 51°17.563 2°52.375 12.3 323 5.2 103470 88
2003-03-18 08:23:24 51°17.584 2°52.366 12.6 322 5.2 103470 88
2003-03-18 08:23:28 51°17.598 2°52.36 12.3 321 5.2 103470 88
2003-03-18 08:23:34 51°17.618 2°52.352 10.7 322 5.2 103470 88
2003-03-18 08:23:38 51°17.632 2°52.346 11.8 322 5.2 103470 88
2003-03-18 08:23:44 51°17.653 2°52.337 12 320 5.2 103460 88
2003-03-18 08:23:49 51°17.67 2°52.33 11.7 324 5.2 103460 88
2003-03-18 08:23:54 51°17.687 2°52.322 11.5 322 5.2 103460 88
2003-03-18 08:23:58 51°17.701 2°52.316 12 320 5.2 103460 88
2003-03-18 08:24:04 51°17.722 2°52.307 12.4 319 5.1 103470 88
2003-03-18 08:24:08 51°17.736 2°52.301 12.2 322 5.1 103470 88
2003-03-18 08:24:14 51°17.757 2°52.293 12.4 320 5.2 103470 88
2003-03-18 08:24:18 51°17.771 2°52.286 11.6 319 5.2 103470 88
2003-03-18 08:24:24 51°17.792 2°52.277 11.8 321 5.2 103470 88
2003-03-18 08:24:29 51°17.809 2°52.269 11.9 323 5.2 103470 88
2003-03-18 08:24:34 51°17.826 2°52.262 12.5 323 5.2 103470 88
2003-03-18 08:24:38 51°17.839 2°52.256 12.8 320 5.2 103470 88
2003-03-18 08:24:44 51°17.86 2°52.247 12.2 317 5.2 103470 88
2003-03-18 08:24:49 51°17.877 2°52.239 12.4 317 5.2 103470 88
2003-03-18 08:24:53 51°17.891 2°52.233 12.3 317 5.2 103470 88
2003-03-18 08:24:58 51°17.908 2°52.225 11.6 321 5.2 103470 88
2003-03-18 08:25:04 51°17.929 2°52.217 11 321 5.2 103470 88
2003-03-18 08:25:08 51°17.943 2°52.211 11.1 321 5.2 103470 88
2003-03-18 08:25:14 51°17.964 2°52.202 12.3 319 5.1 103470 88
2003-03-18 08:25:18 51°17.978 2°52.194 11.9 322 5.1 103470 88
2003-03-18 08:25:24 51°17.999 2°52.185 11.9 322 5.2 103470 88
2003-03-18 08:25:28 51°18.013 2°52.178 12.7 320 5.2 103470 88
2003-03-18 08:25:34 51°18.033 2°52.168 12.7 321 5.2 103470 88
2003-03-18 08:25:38 51°18.047 2°52.162 12.9 320 5.2 103470 88
2003-03-18 08:25:44 51°18.068 2°52.152 11.8 321 5.2 103470 88
2003-03-18 08:25:48 51°18.082 2°52.146 12.3 321 5.2 103470 88
2003-03-18 08:25:54 51°18.103 2°52.137 12.1 323 5.2 103470 88
2003-03-18 08:25:58 51°18.117 2°52.131 12 322 5.2 103470 88
2003-03-18 08:26:04 51°18.138 2°52.121 12 320 5.2 103470 88
2003-03-18 08:26:08 51°18.152 2°52.114 12.2 320 5.2 103470 88
2003-03-18 08:26:14 51°18.173 2°52.104 12.5 319 5.2 103470 88
2003-03-18 08:26:18 51°18.187 2°52.097 11.8 321 5.2 103470 88
2003-03-18 08:26:24 51°18.207 2°52.087 11.2 318 5.2 103470 88
2003-03-18 08:26:29 51°18.225 2°52.079 11 320 5.2 103470 88
2003-03-18 08:26:34 51°18.242 2°52.07 11.4 325 5.2 103470 88
2003-03-18 08:26:38 51°18.256 2°52.063 12 320 5.2 103470 88
2003-03-18 08:26:44 51°18.277 2°52.053 12 320 5.2 103470 88
2003-03-18 08:26:48 51°18.291 2°52.045 12.6 319 5.2 103470 88
2003-03-18 08:26:54 51°18.312 2°52.034 12.2 317 5.2 103470 88
2003-03-18 08:26:58 51°18.326 2°52.026 12.2 320 5.2 103470 88
2003-03-18 08:27:04 51°18.346 2°52.016 12.5 321 5.2 103470 88
2003-03-18 08:27:09 51°18.364 2°52.008 12.4 317 5.2 103470 88
2003-03-18 08:27:14 51°18.381 2°52.001 12.2 316 5.2 103470 88
2003-03-18 08:27:18 51°18.395 2°51.994 11.5 316 5.2 103470 88
2003-03-18 08:27:23 51°18.413 2°51.985 11.1 321 5.2 103470 88
2003-03-18 08:27:28 51°18.43 2°51.976 11.6 318 5.2 103470 88
2003-03-18 08:27:34 51°18.451 2°51.965 11.8 321 5.2 103470 88
2003-03-18 08:27:38 51°18.465 2°51.958 12 322 5.2 103470 88
2003-03-18 08:27:44 51°18.486 2°51.947 13.3 322 5.1 103470 88
2003-03-18 08:27:49 51°18.503 2°51.937 12.1 321 5.1 103470 88
2003-03-18 08:27:54 51°18.521 2°51.927 12.2 325 5.2 103480 88
2003-03-18 08:27:58 51°18.534 2°51.919 12.9 324 5.2 103480 88
2003-03-18 08:28:04 51°18.556 2°51.909 12.3 320 5.2 103480 88
2003-03-18 08:28:08 51°18.57 2°51.903 12.2 321 5.2 103480 88
2003-03-18 08:28:14 51°18.591 2°51.892 11.6 322 5.2 103470 88
2003-03-18 08:28:18 51°18.605 2°51.885 12.4 322 5.2 103470 88
2003-03-18 08:28:24 51°18.626 2°51.874 13.2 323 5.2 103480 88
2003-03-18 08:28:28 51°18.639 2°51.867 12.8 320 5.2 103480 88
2003-03-18 08:28:34 51°18.66 2°51.856 12.2 320 5.2 103470 88
2003-03-18 08:28:38 51°18.674 2°51.848 12.1 320 5.2 103470 88
2003-03-18 08:28:44 51°18.694 2°51.837 12.3 322 5.2 103470 88
2003-03-18 08:28:49 51°18.711 2°51.827 12.6 318 5.2 103470 88
2003-03-18 08:28:54 51°18.728 2°51.818 12.5 319 5.1 103470 88
2003-03-18 08:28:58 51°18.741 2°51.81 11.8 316 5.1 103470 88
2003-03-18 08:29:02 51°18.755 2°51.803 12.1 319 5.1 103470 88
2003-03-18 08:29:08 51°18.776 2°51.791 11.5 318 5.1 103470 88
2003-03-18 08:29:14 51°18.796 2°51.78 11.3 323 5.1 103470 88
2003-03-18 08:29:18 51°18.81 2°51.773 11.9 325 5.1 103470 88
2003-03-18 08:29:22 51°18.824 2°51.765 12.3 321 5.1 103470 88
2003-03-18 08:29:28 51°18.844 2°51.754 11.3 320 5.1 103470 88
2003-03-18 08:29:34 51°18.865 2°51.743 12.1 319 5.1 103470 88
2003-03-18 08:29:38 51°18.879 2°51.736 12.2 320 5.1 103470 88
2003-03-18 08:29:44 51°18.9 2°51.726 11.5 318 5.2 103480 88
2003-03-18 08:29:48 51°18.914 2°51.718 11.6 320 5.2 103480 88
2003-03-18 08:29:52 51°18.928 2°51.711 11 318 5.1 103470 88
2003-03-18 08:29:58 51°18.949 2°51.699 11.3 320 5.1 103470 88
2003-03-18 08:30:02 51°18.963 2°51.691 11.4 322 5.1 103470 88
2003-03-18 08:30:08 51°18.983 2°51.679 11.2 322 5.1 103470 88
2003-03-18 08:30:14 51°19.003 2°51.668 11.7 318 5.2 103480 88
2003-03-18 08:30:18 51°19.017 2°51.66 12.2 321 5.2 103480 88
2003-03-18 08:30:23 51°19.034 2°51.651 12.2 320 5.2 103480 89
2003-03-18 08:30:28 51°19.051 2°51.642 11.8 327 5.2 103480 89
2003-03-18 08:30:33 51°19.068 2°51.632 12.7 323 5.2 103470 89
2003-03-18 08:30:38 51°19.086 2°51.622 12.3 322 5.2 103470 89
2003-03-18 08:30:44 51°19.106 2°51.61 12.2 322 5.2 103480 89
2003-03-18 08:30:48 51°19.12 2°51.603 11.8 327 5.2 103480 89
2003-03-18 08:30:54 51°19.14 2°51.591 11.6 325 5.2 103480 89
2003-03-18 08:30:58 51°19.154 2°51.583 12.3 327 5.2 103480 89
2003-03-18 08:31:04 51°19.174 2°51.571 12.2 323 5.2 103470 89
2003-03-18 08:31:09 51°19.191 2°51.561 12.1 324 5.2 103470 89
2003-03-18 08:31:14 51°19.208 2°51.551 11.7 327 5.1 103480 89
2003-03-18 08:31:18 51°19.222 2°51.544 11.6 327 5.1 103480 89
2003-03-18 08:31:24 51°19.242 2°51.533 12 330 5.2 103480 89
2003-03-18 08:31:29 51°19.258 2°51.524 12.4 322 5.2 103480 89
2003-03-18 08:31:34 51°19.275 2°51.514 12.3 321 5.2 103470 89
2003-03-18 08:31:38 51°19.289 2°51.506 12.1 323 5.2 103470 89
2003-03-18 08:31:44 51°19.31 2°51.495 12.3 326 5.2 103480 89
2003-03-18 08:31:48 51°19.323 2°51.486 12.6 326 5.2 103480 89
2003-03-18 08:31:54 51°19.344 2°51.474 12.8 323 5.2 103480 89
2003-03-18 08:31:58 51°19.357 2°51.467 12.9 322 5.2 103480 89
2003-03-18 08:32:04 51°19.378 2°51.455 12.5 325 5.2 103470 89
2003-03-18 08:32:08 51°19.392 2°51.446 11.9 323 5.2 103470 89
2003-03-18 08:32:14 51°19.412 2°51.434 11.4 319 5.2 103470 89
2003-03-18 08:32:18 51°19.426 2°51.426 12.5 322 5.2 103470 89
2003-03-18 08:32:24 51°19.447 2°51.415 11.9 325 5.1 103480 89
2003-03-18 08:32:28 51°19.461 2°51.407 12.2 320 5.1 103480 89
2003-03-18 08:32:32 51°19.474 2°51.399 12.2 321 5.1 103470 89
2003-03-18 08:32:38 51°19.495 2°51.388 11.4 321 5.1 103470 89
2003-03-18 08:32:44 51°19.516 2°51.377 11.9 320 5.1 103480 89
2003-03-18 08:32:49 51°19.533 2°51.368 11.9 321 5.1 103480 89
2003-03-18 08:32:53 51°19.547 2°51.361 11.8 319 5.1 103470 89
2003-03-18 08:32:58 51°19.564 2°51.351 12.6 324 5.1 103470 89
2003-03-18 08:33:04 51°19.585 2°51.341 12.6 323 5.1 103470 89
2003-03-18 08:33:08 51°19.599 2°51.334 11.7 320 5.1 103470 89
2003-03-18 08:33:14 51°19.62 2°51.323 11.8 321 5.1 103470 89
2003-03-18 08:33:18 51°19.634 2°51.316 11.8 323 5.1 103470 89
2003-03-18 08:33:22 51°19.647 2°51.309 11.6 323 5.2 103470 89
2003-03-18 08:33:29 51°19.671 2°51.295 12.3 321 5.2 103470 89
2003-03-18 08:33:34 51°19.688 2°51.284 12.4 323 5.1 103470 89
2003-03-18 08:33:39 51°19.705 2°51.274 12.3 324 5.1 103470 89
2003-03-18 08:33:44 51°19.723 2°51.265 13.2 320 5.1 103470 89
2003-03-18 08:33:49 51°19.74 2°51.256 13.1 322 5.1 103470 89
2003-03-18 08:33:53 51°19.754 2°51.248 12.4 320 5.2 103480 89
2003-03-18 08:33:59 51°19.775 2°51.237 11.8 320 5.2 103480 89
2003-03-18 08:34:04 51°19.792 2°51.227 12 322 5.1 103470 89
2003-03-18 08:34:08 51°19.806 2°51.22 12.1 325 5.1 103470 89
2003-03-18 08:34:14 51°19.827 2°51.209 11.7 323 5.1 103470 89
2003-03-18 08:34:18 51°19.841 2°51.202 11.5 324 5.1 103470 89
2003-03-18 08:34:24 51°19.862 2°51.191 11.8 323 5.1 103470 89
2003-03-18 08:34:29 51°19.879 2°51.183 12.7 321 5.1 103470 89
2003-03-18 08:34:34 51°19.896 2°51.176 12.5 323 5.1 103470 89
2003-03-18 08:34:38 51°19.91 2°51.17 12.1 323 5.1 103470 89
2003-03-18 08:34:44 51°19.931 2°51.16 12.2 323 5.1 103480 89
2003-03-18 08:34:48 51°19.945 2°51.153 12.7 323 5.1 103480 89
2003-03-18 08:34:53 51°19.962 2°51.144 12.3 323 5.1 103480 89
2003-03-18 08:34:58 51°19.98 2°51.135 12.1 325 5.1 103480 89
2003-03-18 08:35:04 51°20.001 2°51.123 12.6 322 5.1 103480 89
2003-03-18 08:35:08 51°20.015 2°51.116 11.5 320 5.1 103480 89
2003-03-18 08:35:14 51°20.036 2°51.104 11.8 324 5.1 103470 89
2003-03-18 08:35:18 51°20.05 2°51.097 12.5 322 5.1 103470 89
2003-03-18 08:35:24 51°20.07 2°51.086 12.4 321 5.2 103480 89
2003-03-18 08:35:28 51°20.084 2°51.079 12.4 320 5.2 103480 89
2003-03-18 08:35:32 51°20.099 2°51.073 12.3 316 5.1 103480 89
2003-03-18 08:35:38 51°20.12 2°51.062 12 324 5.1 103480 89
2003-03-18 08:35:44 51°20.141 2°51.051 11.5 324 5.2 103480 89
2003-03-18 08:35:48 51°20.155 2°51.043 11.7 325 5.2 103480 89
2003-03-18 08:35:53 51°20.173 2°51.033 11.7 322 5.1 103480 89
2003-03-18 08:35:58 51°20.19 2°51.024 12.3 322 5.1 103480 89
2003-03-18 08:36:04 51°20.211 2°51.012 13.1 325 5.1 103480 89
2003-03-18 08:36:08 51°20.225 2°51.004 11.6 326 5.1 103480 89
2003-03-18 08:36:14 51°20.246 2°50.992 12.2 325 5.2 103480 89
2003-03-18 08:36:18 51°20.26 2°50.985 11.9 325 5.2 103480 89
2003-03-18 08:36:24 51°20.281 2°50.974 12.8 324 5.2 103480 89
2003-03-18 08:36:28 51°20.295 2°50.967 12.3 322 5.2 103480 89
2003-03-18 08:36:32 51°20.31 2°50.96 12 320 5.2 103480 89
2003-03-18 08:36:38 51°20.331 2°50.949 11.7 323 5.2 103480 89
2003-03-18 08:36:44 51°20.352 2°50.936 12.2 325 5.2 103480 89
2003-03-18 08:36:49 51°20.37 2°50.927 12.3 324 5.2 103480 89
2003-03-18 08:36:53 51°20.384 2°50.92 12.7 324 5.1 103480 89
2003-03-18 08:36:59 51°20.405 2°50.908 12 325 5.1 103480 89
2003-03-18 08:37:04 51°20.422 2°50.898 11.8 327 5.1 103480 89
2003-03-18 08:37:08 51°20.436 2°50.89 12.1 325 5.1 103480 89
2003-03-18 08:37:13 51°20.454 2°50.881 12.1 325 5.1 103480 89
2003-03-18 08:37:18 51°20.472 2°50.872 12.7 327 5.1 103480 89
2003-03-18 08:37:24 51°20.493 2°50.861 12.7 326 5.1 103470 89
2003-03-18 08:37:29 51°20.511 2°50.851 12.1 326 5.1 103470 89
2003-03-18 08:37:34 51°20.529 2°50.841 12.5 324 5.1 103480 89
2003-03-18 08:37:38 51°20.544 2°50.833 12.2 323 5.1 103480 89
2003-03-18 08:37:42 51°20.558 2°50.825 12.5 321 5.1 103480 89
2003-03-18 08:37:49 51°20.583 2°50.81 12.6 324 5.1 103480 89
2003-03-18 08:37:53 51°20.597 2°50.802 12 325 5.1 103470 89
2003-03-18 08:37:58 51°20.615 2°50.792 12.2 326 5.1 103470 89
2003-03-18 08:38:04 51°20.636 2°50.78 12.7 323 5.1 103470 89
2003-03-18 08:38:08 51°20.65 2°50.771 12.3 327 5.1 103470 89
2003-03-18 08:38:14 51°20.671 2°50.759 12.3 322 5.1 103480 89
2003-03-18 08:38:18 51°20.686 2°50.751 12.8 319 5.1 103480 89
2003-03-18 08:38:24 51°20.707 2°50.74 12.7 322 5.1 103480 89
2003-03-18 08:38:28 51°20.721 2°50.732 12.2 324 5.1 103480 89
2003-03-18 08:38:32 51°20.735 2°50.725 12.9 322 5.1 103480 89
2003-03-18 08:38:38 51°20.757 2°50.713 12.7 323 5.1 103480 89
2003-03-18 08:38:44 51°20.778 2°50.7 12.8 320 5.1 103480 89
2003-03-18 08:38:49 51°20.795 2°50.69 12.6 322 5.1 103480 89
2003-03-18 08:38:54 51°20.813 2°50.68 11.8 321 5.1 103480 89
2003-03-18 08:38:58 51°20.826 2°50.673 12.1 325 5.1 103480 89
2003-03-18 08:39:04 51°20.847 2°50.66 13.1 320 5.1 103480 89
2003-03-18 08:39:08 51°20.861 2°50.652 11.9 323 5.1 103480 89
2003-03-18 08:39:14 51°20.882 2°50.639 11.9 323 5.1 103470 89
2003-03-18 08:39:18 51°20.896 2°50.631 11.8 323 5.1 103470 89
2003-03-18 08:39:24 51°20.916 2°50.617 11.9 323 5.1 103480 89
2003-03-18 08:39:29 51°20.934 2°50.608 12 321 5.1 103480 89
2003-03-18 08:39:34 51°20.952 2°50.598 12 321 5.1 103470 89
2003-03-18 08:39:38 51°20.966 2°50.59 12 323 5.1 103470 89
2003-03-18 08:39:42 51°20.98 2°50.58 11.8 322 5.1 103480 89
2003-03-18 08:39:49 51°21.004 2°50.564 12.3 321 5.1 103480 89
2003-03-18 08:39:53 51°21.017 2°50.555 12.3 323 5.1 103480 89
2003-03-18 08:39:58 51°21.035 2°50.543 12.4 321 5.1 103480 89
2003-03-18 08:40:04 51°21.056 2°50.531 11.9 322 5.1 103470 89
2003-03-18 08:40:08 51°21.07 2°50.522 12.1 325 5.1 103470 89
2003-03-18 08:40:14 51°21.09 2°50.507 12.4 324 5.1 103480 89
2003-03-18 08:40:18 51°21.104 2°50.498 12 324 5.1 103480 89
2003-03-18 08:40:24 51°21.125 2°50.485 12.1 327 5 103480 89
2003-03-18 08:40:29 51°21.143 2°50.474 12 325 5 103480 89
2003-03-18 08:40:33 51°21.157 2°50.465 12.9 329 5.1 103490 89
2003-03-18 08:40:38 51°21.175 2°50.456 12.9 328 5.1 103490 89
2003-03-18 08:40:44 51°21.196 2°50.443 12.7 324 5.1 103480 89
2003-03-18 08:40:49 51°21.213 2°50.432 12.3 322 5.1 103480 89
2003-03-18 08:40:54 51°21.231 2°50.422 12.9 324 5.1 103480 89
2003-03-18 08:40:58 51°21.246 2°50.414 11.9 323 5.1 103480 89
2003-03-18 08:41:04 51°21.267 2°50.401 11.9 321 5.1 103480 89
2003-03-18 08:41:08 51°21.281 2°50.392 11.5 323 5.1 103480 89
2003-03-18 08:41:14 51°21.303 2°50.38 11.5 321 5.1 103480 89
2003-03-18 08:41:18 51°21.317 2°50.372 12.2 326 5.1 103480 89
2003-03-18 08:41:22 51°21.331 2°50.364 12.1 327 5.1 103480 89
2003-03-18 08:41:29 51°21.356 2°50.35 12.5 324 5.1 103480 89
2003-03-18 08:41:34 51°21.374 2°50.339 11.9 323 5.1 103480 89
2003-03-18 08:41:38 51°21.388 2°50.33 11.4 326 5.1 103480 89
2003-03-18 08:41:42 51°21.402 2°50.322 12.1 325 5.1 103480 89
2003-03-18 08:41:48 51°21.423 2°50.309 12.2 322 5.1 103480 89
2003-03-18 08:41:54 51°21.445 2°50.297 12.1 325 5.1 103480 89
2003-03-18 08:41:58 51°21.459 2°50.289 13 325 5.1 103480 89
2003-03-18 08:42:04 51°21.481 2°50.279 12.6 328 5.1 103490 89
2003-03-18 08:42:08 51°21.495 2°50.271 12.9 323 5.1 103490 89
2003-03-18 08:42:12 51°21.509 2°50.264 13.1 325 5.1 103480 89
2003-03-18 08:42:18 51°21.53 2°50.253 13.5 323 5.1 103480 89
2003-03-18 08:42:24 51°21.551 2°50.242 13.3 323 5.1 103480 89
2003-03-18 08:42:29 51°21.569 2°50.232 13 322 5.1 103480 89
2003-03-18 08:42:34 51°21.586 2°50.223 12.8 322 5.1 103480 89
2003-03-18 08:42:38 51°21.6 2°50.215 12.4 324 5.1 103480 89
2003-03-18 08:42:44 51°21.621 2°50.204 12.7 322 5.1 103480 89
2003-03-18 08:42:48 51°21.635 2°50.196 11.6 322 5.1 103480 89
2003-03-18 08:42:54 51°21.657 2°50.185 12.2 321 5.1 103470 89
2003-03-18 08:42:58 51°21.67 2°50.178 11.3 322 5.1 103470 89
2003-03-18 08:43:04 51°21.691 2°50.166 11.8 322 5.1 103480 89
2003-03-18 08:43:09 51°21.708 2°50.157 12.3 319 5.1 103480 89
2003-03-18 08:43:14 51°21.725 2°50.148 11.8 320 5.1 103480 89
2003-03-18 08:43:18 51°21.739 2°50.14 11.8 315 5.1 103480 89
2003-03-18 08:43:24 51°21.759 2°50.128 12.1 316 5 103480 89
2003-03-18 08:43:28 51°21.773 2°50.119 11.9 323 5 103480 89
2003-03-18 08:43:33 51°21.79 2°50.11 12 320 5 103490 89
2003-03-18 08:43:39 51°21.81 2°50.098 11.7 323 5 103490 89
2003-03-18 08:43:44 51°21.828 2°50.089 11.4 319 5 103480 89
2003-03-18 08:43:48 51°21.841 2°50.081 11.8 321 5 103480 89
2003-03-18 08:43:54 51°21.862 2°50.07 11.5 329 5 103490 89
2003-03-18 08:43:58 51°21.876 2°50.063 12.6 326 5 103490 89
2003-03-18 08:44:04 51°21.896 2°50.052 12.9 327 5.1 103480 89
2003-03-18 08:44:08 51°21.91 2°50.045 12.9 322 5.1 103480 89
2003-03-18 08:44:14 51°21.931 2°50.034 12.5 323 5 103480 89
2003-03-18 08:44:18 51°21.945 2°50.027 12 322 5 103480 89
2003-03-18 08:44:24 51°21.965 2°50.016 11.5 324 5 103490 89
2003-03-18 08:44:29 51°21.983 2°50.008 11.5 327 5 103490 89
2003-03-18 08:44:34 51°22 2°49.999 11.8 325 5 103480 89
2003-03-18 08:44:38 51°22.014 2°49.992 11.9 325 5 103480 89
2003-03-18 08:44:44 51°22.035 2°49.981 11.7 323 5 103490 89
2003-03-18 08:44:48 51°22.049 2°49.974 11.7 327 5 103490 89
2003-03-18 08:44:54 51°22.07 2°49.963 11.5 324 5 103480 89
2003-03-18 08:44:58 51°22.083 2°49.955 12.5 329 5 103480 89
2003-03-18 08:45:02 51°22.097 2°49.948 13.2 326 5.1 103490 89
2003-03-18 08:45:08 51°22.118 2°49.937 11.7 322 5.1 103490 89
2003-03-18 08:45:14 51°22.139 2°49.925 12.3 323 5.1 103490 89
2003-03-18 08:45:18 51°22.153 2°49.917 11.4 325 5.1 103490 89
2003-03-18 08:45:23 51°22.17 2°49.907 11.8 327 5.1 103490 89
2003-03-18 08:45:28 51°22.187 2°49.898 13.1 323 5.1 103490 89
2003-03-18 08:45:34 51°22.208 2°49.886 12.6 323 5.1 103490 89
2003-03-18 08:45:38 51°22.222 2°49.879 12.6 321 5.1 103490 89
2003-03-18 08:45:43 51°22.239 2°49.87 11.7 319 5.1 103480 89
2003-03-18 08:45:48 51°22.257 2°49.861 11.7 320 5.1 103480 89
2003-03-18 08:45:53 51°22.274 2°49.853 11.5 323 5.1 103480 89
2003-03-18 08:45:59 51°22.295 2°49.843 12.2 320 5.1 103480 89
2003-03-18 08:46:04 51°22.313 2°49.835 12.6 320 5.1 103480 89
2003-03-18 08:46:09 51°22.331 2°49.827 12.7 320 5.1 103480 89
2003-03-18 08:46:14 51°22.348 2°49.818 12.4 321 5.1 103490 89
2003-03-18 08:46:18 51°22.362 2°49.811 11.5 321 5.1 103490 89
2003-03-18 08:46:24 51°22.383 2°49.801 11.5 324 5.1 103490 89
2003-03-18 08:46:29 51°22.401 2°49.792 12.2 322 5.1 103490 89
2003-03-18 08:46:33 51°22.415 2°49.786 11.8 324 5 103480 89
2003-03-18 08:46:38 51°22.433 2°49.778 12.3 324 5 103480 89
2003-03-18 08:46:44 51°22.454 2°49.768 12.2 326 5 103480 89
2003-03-18 08:46:49 51°22.472 2°49.759 11.2 321 5 103480 89
2003-03-18 08:46:53 51°22.486 2°49.752 10.8 319 5.1 103480 89
2003-03-18 08:46:58 51°22.503 2°49.744 10.9 323 5.1 103480 89
2003-03-18 08:47:03 51°22.521 2°49.735 11.6 322 5.1 103490 89
2003-03-18 08:47:09 51°22.542 2°49.726 11.7 324 5.1 103490 89
2003-03-18 08:47:14 51°22.559 2°49.718 11 328 5 103480 89
2003-03-18 08:47:18 51°22.573 2°49.711 12.7 323 5 103480 89
2003-03-18 08:47:24 51°22.595 2°49.701 12.2 322 5 103490 89
2003-03-18 08:47:28 51°22.608 2°49.695 11.6 322 5 103490 89
2003-03-18 08:47:34 51°22.629 2°49.685 11.4 322 5.1 103480 89
2003-03-18 08:47:38 51°22.643 2°49.679 12.1 318 5.1 103480 89
2003-03-18 08:47:44 51°22.664 2°49.669 12.1 318 5 103490 89
2003-03-18 08:47:48 51°22.678 2°49.662 11.5 319 5 103490 89
2003-03-18 08:47:54 51°22.699 2°49.652 12 319 5 103490 89
2003-03-18 08:47:59 51°22.716 2°49.644 11.2 323 5 103490 89
2003-03-18 08:48:04 51°22.733 2°49.636 11.7 321 5 103480 89
2003-03-18 08:48:08 51°22.747 2°49.63 11.4 321 5 103480 89
2003-03-18 08:48:14 51°22.768 2°49.62 11.2 322 5 103490 89
2003-03-18 08:48:18 51°22.781 2°49.613 12 317 5 103490 89
2003-03-18 08:48:24 51°22.802 2°49.602 11.2 319 5 103480 89
2003-03-18 08:48:29 51°22.819 2°49.594 11.7 320 5 103480 89
2003-03-18 08:48:34 51°22.836 2°49.586 10.3 321 4.9 103490 89
2003-03-18 08:48:38 51°22.85 2°49.58 11.1 323 4.9 103490 89
2003-03-18 08:48:44 51°22.87 2°49.571 11.5 318 5 103490 89
2003-03-18 08:48:49 51°22.887 2°49.563 11.6 320 5 103490 89
2003-03-18 08:48:54 51°22.904 2°49.555 11.5 317 5 103490 89
2003-03-18 08:48:58 51°22.918 2°49.548 10.8 316 5 103490 89
2003-03-18 08:49:04 51°22.938 2°49.538 10.6 321 5 103490 89
2003-03-18 08:49:08 51°22.952 2°49.531 10.7 321 5 103490 89
2003-03-18 08:49:14 51°22.972 2°49.521 11.3 327 5 103480 89
2003-03-18 08:49:18 51°22.986 2°49.515 11.2 324 5 103480 89
2003-03-18 08:49:24 51°23.006 2°49.505 11.3 324 5 103490 89
2003-03-18 08:49:28 51°23.02 2°49.498 11.5 327 5 103490 89
2003-03-18 08:49:34 51°23.04 2°49.488 11.1 328 5 103500 89
2003-03-18 08:49:38 51°23.054 2°49.481 11.8 326 5 103500 89
2003-03-18 08:49:44 51°23.074 2°49.47 12 327 5 103490 89
2003-03-18 08:49:49 51°23.091 2°49.462 12.4 328 5 103490 89
2003-03-18 08:49:54 51°23.108 2°49.453 12.3 327 5 103490 89
2003-03-18 08:49:58 51°23.121 2°49.446 12.2 327 5 103490 89
2003-03-18 08:50:04 51°23.142 2°49.435 12.2 326 5 103490 89
2003-03-18 08:50:09 51°23.159 2°49.427 12.2 324 5 103490 89
2003-03-18 08:50:14 51°23.176 2°49.417 11.9 322 5 103490 89
2003-03-18 08:50:18 51°23.19 2°49.41 12.2 324 5 103490 89
2003-03-18 08:50:24 51°23.21 2°49.4 12.5 324 5 103490 89
2003-03-18 08:50:28 51°23.224 2°49.393 12.2 323 5 103490 89
2003-03-18 08:50:34 51°23.244 2°49.382 11.7 321 5 103490 89
2003-03-18 08:50:38 51°23.258 2°49.375 12.2 316 5 103490 89
2003-03-18 08:50:44 51°23.278 2°49.364 11.8 319 5 103490 89
2003-03-18 08:50:49 51°23.295 2°49.355 11.9 320 5 103490 89
2003-03-18 08:50:54 51°23.313 2°49.347 11.1 319 5 103480 89
2003-03-18 08:50:58 51°23.326 2°49.339 11.1 320 5 103480 89
2003-03-18 08:51:04 51°23.347 2°49.329 11.3 322 5 103490 89
2003-03-18 08:51:08 51°23.361 2°49.322 11.4 322 5 103490 89
2003-03-18 08:51:14 51°23.381 2°49.311 12.2 322 5 103490 89
2003-03-18 08:51:18 51°23.394 2°49.304 11.6 322 5 103490 89
2003-03-18 08:51:24 51°23.415 2°49.292 10.9 321 5 103490 89
2003-03-18 08:51:28 51°23.429 2°49.284 12 327 5 103490 89
2003-03-18 08:51:34 51°23.449 2°49.273 12.3 325 5 103490 89
2003-03-18 08:51:38 51°23.463 2°49.266 12 324 5 103490 89
2003-03-18 08:51:44 51°23.484 2°49.256 12.6 324 5 103490 89
2003-03-18 08:51:48 51°23.498 2°49.248 11.4 325 5 103490 89
2003-03-18 08:51:54 51°23.518 2°49.237 11.8 323 5 103490 89
2003-03-18 08:51:58 51°23.531 2°49.231 11.7 326 5 103490 89
2003-03-18 08:52:04 51°23.552 2°49.221 11.7 326 5 103490 89
2003-03-18 08:52:09 51°23.569 2°49.214 12.1 333 5 103490 89
2003-03-18 08:52:14 51°23.586 2°49.206 12.3 328 5 103490 89
2003-03-18 08:52:18 51°23.601 2°49.2 12.6 325 5 103490 89
2003-03-18 08:52:24 51°23.621 2°49.191 12.3 327 5 103490 89
2003-03-18 08:52:28 51°23.635 2°49.186 11.9 325 5 103490 89
2003-03-18 08:52:34 51°23.656 2°49.176 12.3 325 5 103490 89
2003-03-18 08:52:38 51°23.67 2°49.17 11.9 324 5 103490 89
2003-03-18 08:52:44 51°23.69 2°49.162 12.3 324 5 103490 89
2003-03-18 08:52:49 51°23.708 2°49.156 12 322 5 103490 89
2003-03-18 08:52:54 51°23.725 2°49.149 11.9 323 5 103480 89
2003-03-18 08:52:58 51°23.739 2°49.144 11.7 326 5 103480 89
2003-03-18 08:53:04 51°23.76 2°49.136 11 328 4.9 103480 89
2003-03-18 08:53:08 51°23.773 2°49.132 11.1 326 4.9 103480 89
2003-03-18 08:53:14 51°23.794 2°49.125 12 328 4.9 103490 89
2003-03-18 08:53:18 51°23.808 2°49.12 10.8 325 4.9 103490 89
2003-03-18 08:53:24 51°23.829 2°49.112 11.9 324 4.9 103490 89
2003-03-18 08:53:28 51°23.843 2°49.108 11.6 326 4.9 103490 89
2003-03-18 08:53:34 51°23.864 2°49.1 11.3 328 5 103490 90
2003-03-18 08:53:38 51°23.878 2°49.096 11.4 326 5 103490 90
2003-03-18 08:53:44 51°23.899 2°49.088 11.4 326 5 103490 90
2003-03-18 08:53:48 51°23.913 2°49.083 11.4 325 5 103490 90
2003-03-18 08:53:54 51°23.934 2°49.075 11 326 5 103500 90
2003-03-18 08:53:58 51°23.948 2°49.07 11.9 330 5 103500 90
2003-03-18 08:54:04 51°23.969 2°49.064 12.1 326 5 103500 90
2003-03-18 08:54:09 51°23.986 2°49.058 11.7 327 5 103500 90
2003-03-18 08:54:14 51°24.004 2°49.053 11.9 326 5 103490 90
2003-03-18 08:54:18 51°24.018 2°49.048 12.3 327 5 103490 90
2003-03-18 08:54:24 51°24.039 2°49.042 12 328 5 103490 90
2003-03-18 08:54:29 51°24.056 2°49.036 12.8 326 5 103490 90
2003-03-18 08:54:34 51°24.073 2°49.032 12.5 325 5 103490 90
2003-03-18 08:54:38 51°24.087 2°49.028 11.5 328 5 103490 90
2003-03-18 08:54:44 51°24.108 2°49.023 11.7 325 5 103500 90
2003-03-18 08:54:49 51°24.126 2°49.018 12.4 328 5 103500 90
2003-03-18 08:54:54 51°24.144 2°49.014 11.8 330 5 103500 90
2003-03-18 08:54:58 51°24.158 2°49.011 12 331 5 103500 90
2003-03-18 08:55:04 51°24.179 2°49.007 12.3 330 5 103490 90
2003-03-18 08:55:09 51°24.196 2°49.002 12.1 330 5 103490 90
2003-03-18 08:55:14 51°24.214 2°48.998 12.4 329 5 103490 90
2003-03-18 08:55:18 51°24.228 2°48.995 12.2 329 5 103490 90
2003-03-18 08:55:24 51°24.249 2°48.99 11.4 328 5 103490 90
2003-03-18 08:55:28 51°24.263 2°48.987 11.8 329 5 103490 90
2003-03-18 08:55:34 51°24.284 2°48.982 11.4 329 5 103500 90
2003-03-18 08:55:38 51°24.298 2°48.978 12.3 329 5 103500 90
2003-03-18 08:55:44 51°24.319 2°48.973 12.3 328 5 103490 90
2003-03-18 08:55:48 51°24.333 2°48.969 12 331 5 103490 90
2003-03-18 08:55:54 51°24.354 2°48.964 12.4 328 5 103500 90
2003-03-18 08:55:58 51°24.369 2°48.961 11.5 330 5 103500 90
2003-03-18 08:56:04 51°24.39 2°48.957 12 330 5 103490 90
2003-03-18 08:56:09 51°24.407 2°48.954 11.7 332 5 103490 90
2003-03-18 08:56:14 51°24.425 2°48.95 12 331 5 103490 90
2003-03-18 08:56:18 51°24.439 2°48.947 12.1 330 5 103490 90
2003-03-18 08:56:22 51°24.453 2°48.944 11.9 334 5.1 103490 90
2003-03-18 08:56:28 51°24.474 2°48.938 12.1 330 5.1 103490 90
2003-03-18 08:56:34 51°24.495 2°48.934 13 329 5.1 103500 90
2003-03-18 08:56:38 51°24.51 2°48.931 12.8 333 5.1 103500 90
2003-03-18 08:56:44 51°24.531 2°48.926 13 329 5 103490 90
2003-03-18 08:56:49 51°24.548 2°48.921 12.1 331 5 103490 90
2003-03-18 08:56:53 51°24.562 2°48.918 12.6 330 5.1 103490 90
2003-03-18 08:56:58 51°24.58 2°48.914 12.5 330 5.1 103490 90
2003-03-18 08:57:02 51°24.594 2°48.912 12.6 330 5.1 103500 90
2003-03-18 08:57:08 51°24.615 2°48.907 11.7 330 5.1 103500 90
2003-03-18 08:57:14 51°24.636 2°48.902 12.3 328 5.1 103490 90
2003-03-18 08:57:18 51°24.651 2°48.898 11.6 328 5.1 103490 90
2003-03-18 08:57:24 51°24.672 2°48.894 12.3 330 5.1 103490 90
2003-03-18 08:57:28 51°24.686 2°48.891 13.3 326 5.1 103490 90
2003-03-18 08:57:34 51°24.707 2°48.887 12.4 328 5.1 103490 90
2003-03-18 08:57:38 51°24.721 2°48.883 12.7 329 5.1 103490 90
2003-03-18 08:57:44 51°24.743 2°48.879 12.7 329 5.1 103500 90
2003-03-18 08:57:49 51°24.761 2°48.875 12.1 330 5.1 103500 90
2003-03-18 08:57:54 51°24.778 2°48.871 12.2 329 5.1 103500 89
2003-03-18 08:57:58 51°24.793 2°48.868 12.5 327 5.1 103500 89
2003-03-18 08:58:04 51°24.814 2°48.865 11.9 325 5.1 103500 90
2003-03-18 08:58:08 51°24.828 2°48.862 12.2 328 5.1 103500 90
2003-03-18 08:58:14 51°24.85 2°48.858 11.9 327 5.1 103500 90
2003-03-18 08:58:18 51°24.864 2°48.855 11.9 330 5.1 103500 90
2003-03-18 08:58:24 51°24.886 2°48.851 11.6 331 5.1 103490 90
2003-03-18 08:58:28 51°24.9 2°48.848 12.2 330 5.1 103490 90
2003-03-18 08:58:34 51°24.921 2°48.844 12 331 5.1 103490 90
2003-03-18 08:58:38 51°24.936 2°48.841 12.4 331 5.1 103490 90
2003-03-18 08:58:42 51°24.95 2°48.838 12.5 334 5.1 103490 90
2003-03-18 08:58:48 51°24.972 2°48.834 13 331 5.1 103490 90
2003-03-18 08:58:54 51°24.993 2°48.83 13.3 332 5.1 103490 90
2003-03-18 08:58:58 51°25.007 2°48.828 12.6 330 5.1 103490 90
2003-03-18 08:59:04 51°25.029 2°48.823 13.5 330 5.1 103500 90
2003-03-18 08:59:08 51°25.043 2°48.821 12.5 331 5.1 103500 90
2003-03-18 08:59:14 51°25.065 2°48.817 12.7 328 5.1 103500 90
2003-03-18 08:59:18 51°25.079 2°48.814 12.9 327 5.1 103500 90
2003-03-18 08:59:24 51°25.1 2°48.809 12 329 5.1 103490 89
2003-03-18 08:59:28 51°25.115 2°48.806 12.1 327 5.1 103490 89
2003-03-18 08:59:34 51°25.136 2°48.802 12.4 328 5.1 103490 89
2003-03-18 08:59:38 51°25.15 2°48.799 12.3 325 5.1 103490 89
2003-03-18 08:59:44 51°25.172 2°48.795 12.1 325 5.1 103480 89
2003-03-18 08:59:49 51°25.19 2°48.792 11.8 324 5.1 103480 89
2003-03-18 08:59:54 51°25.207 2°48.788 12.3 322 5.1 103500 89
2003-03-18 08:59:59 51°25.225 2°48.784 11.7 324 5.1 103500 89
2003-03-18 09:00:04 51°25.243 2°48.777 12 321 5.1 103490 89
2003-03-18 09:00:08 51°25.257 2°48.773 11.1 329 5.1 103490 89
2003-03-18 09:00:14 51°25.278 2°48.765 11.5 325 5.1 103490 89
2003-03-18 09:00:18 51°25.292 2°48.759 11.6 329 5.1 103490 89
2003-03-18 09:00:24 51°25.313 2°48.749 11.7 322 5.1 103490 89
2003-03-18 09:00:29 51°25.33 2°48.74 12.1 325 5.1 103490 89
2003-03-18 09:00:34 51°25.347 2°48.731 11.8 323 5.1 103490 89
2003-03-18 09:00:38 51°25.361 2°48.723 11.5 324 5.1 103490 89
2003-03-18 09:00:44 51°25.381 2°48.711 11.6 325 5.1 103500 89
2003-03-18 09:00:48 51°25.395 2°48.701 12.1 324 5.1 103500 89
2003-03-18 09:00:54 51°25.415 2°48.689 12 323 5.1 103500 89
2003-03-18 09:00:58 51°25.428 2°48.678 12.4 321 5.1 103500 89
2003-03-18 09:01:03 51°25.445 2°48.667 11.5 318 5.1 103500 89
2003-03-18 09:01:08 51°25.461 2°48.654 11.7 318 5.1 103500 89
2003-03-18 09:01:14 51°25.481 2°48.639 11.6 318 5.1 103490 89
2003-03-18 09:01:19 51°25.498 2°48.626 11.5 315 5.1 103490 89
2003-03-18 09:01:24 51°25.514 2°48.612 11.3 319 5.1 103500 89
2003-03-18 09:01:29 51°25.531 2°48.599 10.7 320 5.1 103500 89
2003-03-18 09:01:34 51°25.548 2°48.586 10.6 320 5.1 103500 89
2003-03-18 09:01:38 51°25.561 2°48.576 11 323 5.1 103500 89
2003-03-18 09:01:44 51°25.581 2°48.561 11.4 323 5.1 103500 89
2003-03-18 09:01:48 51°25.594 2°48.55 11.4 322 5.1 103500 89
2003-03-18 09:01:53 51°25.611 2°48.538 11.7 321 5 103500 89
2003-03-18 09:01:58 51°25.628 2°48.525 10.6 319 5 103500 89
2003-03-18 09:02:04 51°25.648 2°48.51 10.9 319 5 103500 89
2003-03-18 09:02:08 51°25.661 2°48.5 11.4 319 5 103500 89
2003-03-18 09:02:12 51°25.675 2°48.49 11.4 320 5 103500 89
2003-03-18 09:02:18 51°25.695 2°48.475 10.3 324 5 103500 89
2003-03-18 09:02:23 51°25.71 2°48.464 10.1 319 5 103500 89
2003-03-18 09:02:28 51°25.725 2°48.454 9.6 318 5 103500 89
2003-03-18 09:02:34 51°25.742 2°48.443 9.7 318 5 103500 90
2003-03-18 09:02:38 51°25.753 2°48.436 9.6 316 5 103500 90
2003-03-18 09:02:44 51°25.769 2°48.425 10 314 5 103510 89
2003-03-18 09:02:49 51°25.782 2°48.416 9.6 312 5 103510 89
2003-03-18 09:02:54 51°25.794 2°48.406 9.5 310 5 103510 90
2003-03-18 09:02:58 51°25.805 2°48.399 10.1 311 5 103510 90
2003-03-18 09:03:04 51°25.82 2°48.388 9.9 316 5 103510 90
2003-03-18 09:03:08 51°25.83 2°48.382 9.7 320 5 103510 90
2003-03-18 09:03:14 51°25.844 2°48.373 9.7 316 5.1 103500 90
2003-03-18 09:03:18 51°25.853 2°48.368 9.7 319 5.1 103500 90
2003-03-18 09:03:23 51°25.864 2°48.364 10.1 317 5 103500 90
2003-03-18 09:03:29 51°25.877 2°48.361 8.7 323 5 103500 90
2003-03-18 09:03:34 51°25.886 2°48.36 9.1 322 5 103500 90
2003-03-18 09:03:38 51°25.893 2°48.36 9 330 5 103500 90
2003-03-18 09:03:44 51°25.904 2°48.361 9.2 328 5 103510 90
2003-03-18 09:03:49 51°25.912 2°48.363 9 334 5 103510 90
2003-03-18 09:03:54 51°25.92 2°48.365 9.2 331 5 103510 90
2003-03-18 09:03:58 51°25.925 2°48.367 9.2 338 5 103510 90
2003-03-18 09:04:02 51°25.93 2°48.371 8.5 340 5 103510 90
2003-03-18 09:04:08 51°25.936 2°48.377 8.8 347 5 103510 90
2003-03-18 09:04:14 51°25.942 2°48.384 8.6 344 5.1 103510 90
2003-03-18 09:04:19 51°25.946 2°48.391 7.8 344 5.1 103510 90
2003-03-18 09:04:23 51°25.95 2°48.396 8.9 345 5.1 103510 90
2003-03-18 09:04:28 51°25.954 2°48.403 8.7 349 5.1 103510 90
2003-03-18 09:04:34 51°25.959 2°48.41 8.6 350 5.1 103520 90
2003-03-18 09:04:38 51°25.962 2°48.415 8.8 346 5.1 103520 90
2003-03-18 09:04:44 51°25.966 2°48.423 8.2 346 5.1 103520 90
2003-03-18 09:04:49 51°25.97 2°48.429 8.3 351 5.1 103520 90
2003-03-18 09:04:54 51°25.973 2°48.435 8.1 349 5.1 103520 90
2003-03-18 09:04:58 51°25.976 2°48.44 7.3 353 5.1 103520 90
2003-03-18 09:05:03 51°25.98 2°48.445 7.3 348 5.1 103520 90
2003-03-18 09:05:09 51°25.984 2°48.45 7.2 346 5.1 103520 90
2003-03-18 09:05:13 51°25.987 2°48.452 7.6 350 5.1 103520 90
2003-03-18 09:05:18 51°25.989 2°48.454 8.4 351 5.1 103520 90
2003-03-18 09:05:23 51°25.991 2°48.456 7.5 348 5.1 103520 90
2003-03-18 09:05:28 51°25.992 2°48.458 6.7 349 5.1 103520 90
2003-03-18 09:05:34 51°25.993 2°48.46 6.6 352 5.1 103520 90
2003-03-18 09:05:39 51°25.993 2°48.461 7.1 355 5.1 103520 90
2003-03-18 09:05:44 51°25.992 2°48.462 6.3 356 5.2 103520 90
2003-03-18 09:05:49 51°25.992 2°48.464 7.1 356 5.2 103520 90
2003-03-18 09:05:54 51°25.993 2°48.465 6.7 357 5.2 103520 90
2003-03-18 09:05:58 51°25.993 2°48.466 7 358 5.2 103520 90
2003-03-18 09:06:04 51°25.992 2°48.467 6.8 356 5.2 103520 90
2003-03-18 09:06:09 51°25.992 2°48.468 6.7 358 5.2 103520 90
2003-03-18 09:06:14 51°25.992 2°48.469 6.9 357 5.2 103520 90
2003-03-18 09:06:18 51°25.991 2°48.47 7.2 358 5.2 103520 90
2003-03-18 09:06:24 51°25.991 2°48.471 6.5 359 5.2 103520 90
2003-03-18 09:06:29 51°25.991 2°48.472 6.6 358 5.2 103520 90
2003-03-18 09:06:34 51°25.99 2°48.473 6.9 355 5.2 103520 90
2003-03-18 09:06:38 51°25.99 2°48.473 6.8 356 5.2 103520 90
2003-03-18 09:06:43 51°25.99 2°48.474 6.3 356 5.2 103520 90
2003-03-18 09:06:48 51°25.989 2°48.474 6.3 351 5.2 103520 90
2003-03-18 09:06:54 51°25.989 2°48.474 6.2 356 5.2 103520 90
2003-03-18 09:06:58 51°25.989 2°48.475 6.2 355 5.2 103520 90
2003-03-18 09:07:04 51°25.989 2°48.475 5.6 356 5.2 103520 90
2003-03-18 09:07:09 51°25.989 2°48.475 5.6 352 5.2 103520 90
2003-03-18 09:07:14 51°25.989 2°48.475 5.6 353 5.2 103520 90
2003-03-18 09:07:19 51°25.989 2°48.475 5.9 347 5.2 103520 90
2003-03-18 09:07:24 51°25.988 2°48.476 6.7 350 5.2 103520 90
2003-03-18 09:07:28 51°25.988 2°48.475 5.8 349 5.2 103520 90
2003-03-18 09:07:33 51°25.988 2°48.474 6.6 351 5.2 103530 90
2003-03-18 09:07:39 51°25.988 2°48.473 6.4 344 5.2 103530 90
2003-03-18 09:07:44 51°25.987 2°48.472 5.4 341 5.2 103530 90
2003-03-18 09:07:49 51°25.987 2°48.473 5 342 5.2 103530 90
2003-03-18 09:07:52 51°25.987 2°48.473 5.9 344 5.2 103520 90
2003-03-18 09:07:58 51°25.987 2°48.473 6.2 342 5.2 103520 90
2003-03-18 09:08:04 51°25.987 2°48.472 5.2 337 5.2 103520 90
2003-03-18 09:08:09 51°25.987 2°48.472 5.9 334 5.2 103520 90
2003-03-18 09:08:14 51°25.987 2°48.471 6.6 338 5.2 103520 90
2003-03-18 09:08:18 51°25.986 2°48.471 5.9 338 5.2 103520 90
2003-03-18 09:08:24 51°25.986 2°48.47 6 337 5.3 103520 90
2003-03-18 09:08:28 51°25.985 2°48.47 5.6 338 5.3 103520 90
2003-03-18 09:08:33 51°25.985 2°48.469 6.1 336 5.3 103530 90
2003-03-18 09:08:39 51°25.985 2°48.468 6.1 337 5.3 103530 90
2003-03-18 09:08:44 51°25.985 2°48.468 6.5 335 5.3 103520 90
2003-03-18 09:08:48 51°25.985 2°48.467 6.2 338 5.3 103520 90
2003-03-18 09:08:54 51°25.984 2°48.465 6.2 335 5.3 103530 90
2003-03-18 09:08:58 51°25.984 2°48.465 5.9 332 5.3 103530 90
2003-03-18 09:09:04 51°25.984 2°48.464 6.7 332 5.3 103520 90
2003-03-18 09:09:09 51°25.983 2°48.463 6 332 5.3 103520 90
2003-03-18 09:09:14 51°25.983 2°48.462 5.6 330 5.3 103520 90
2003-03-18 09:09:18 51°25.983 2°48.461 6.4 333 5.3 103520 90
2003-03-18 09:09:24 51°25.982 2°48.46 6.1 333 5.3 103530 89
2003-03-18 09:09:28 51°25.982 2°48.46 6.3 335 5.3 103530 89
2003-03-18 09:09:34 51°25.982 2°48.459 6 336 5.3 103520 89
2003-03-18 09:09:38 51°25.981 2°48.458 5.9 337 5.3 103520 89
2003-03-18 09:09:44 51°25.981 2°48.457 6.2 340 5.3 103530 89
2003-03-18 09:09:48 51°25.981 2°48.457 5.7 343 5.3 103530 89
2003-03-18 09:09:54 51°25.98 2°48.456 5.8 341 5.3 103530 89
2003-03-18 09:09:58 51°25.981 2°48.454 6.1 339 5.3 103530 89
2003-03-18 09:10:04 51°25.98 2°48.453 6.8 339 5.3 103520 89
2003-03-18 09:10:08 51°25.98 2°48.453 5.9 341 5.3 103520 89
2003-03-18 09:10:14 51°25.98 2°48.452 6.1 339 5.3 103520 89
2003-03-18 09:10:19 51°25.979 2°48.451 6.2 340 5.3 103520 89
2003-03-18 09:10:24 51°25.979 2°48.45 6.6 339 5.3 103520 89
2003-03-18 09:10:29 51°25.979 2°48.449 6 338 5.3 103520 89
2003-03-18 09:10:34 51°25.978 2°48.448 6.1 339 5.3 103520 89
2003-03-18 09:10:38 51°25.978 2°48.448 6.1 337 5.3 103520 89
2003-03-18 09:10:44 51°25.978 2°48.447 6.2 338 5.3 103530 89
2003-03-18 09:10:48 51°25.977 2°48.447 6.1 332 5.3 103530 89
2003-03-18 09:10:53 51°25.977 2°48.446 5.8 339 5.3 103530 89
2003-03-18 09:10:59 51°25.977 2°48.445 5.4 332 5.3 103530 89
2003-03-18 09:11:04 51°25.976 2°48.444 5.9 329 5.3 103520 89
2003-03-18 09:11:08 51°25.976 2°48.443 6.1 328 5.3 103520 89
2003-03-18 09:11:12 51°25.976 2°48.442 7 326 5.3 103520 89
2003-03-18 09:11:18 51°25.975 2°48.441 6.6 330 5.3 103520 89
2003-03-18 09:11:23 51°25.975 2°48.44 6.8 332 5.3 103530 89
2003-03-18 09:11:29 51°25.975 2°48.438 7.2 333 5.3 103530 89
2003-03-18 09:11:34 51°25.975 2°48.438 6.5 333 5.3 103530 89
2003-03-18 09:11:38 51°25.975 2°48.437 6.5 329 5.3 103530 89
2003-03-18 09:11:44 51°25.975 2°48.436 6.8 327 5.3 103520 89
2003-03-18 09:11:49 51°25.975 2°48.434 7.2 321 5.3 103520 89
2003-03-18 09:11:54 51°25.975 2°48.434 6.2 330 5.3 103520 89
2003-03-18 09:11:58 51°25.976 2°48.433 5.8 327 5.3 103520 89
2003-03-18 09:12:02 51°25.976 2°48.432 6.9 329 5.3 103530 89
2003-03-18 09:12:08 51°25.977 2°48.431 6.5 328 5.3 103530 89
2003-03-18 09:12:14 51°25.978 2°48.43 6.4 329 5.3 103520 89
2003-03-18 09:12:18 51°25.978 2°48.43 6.2 323 5.3 103520 89
2003-03-18 09:12:24 51°25.979 2°48.43 6.4 329 5.3 103520 89
2003-03-18 09:12:29 51°25.98 2°48.429 7 332 5.3 103520 89
2003-03-18 09:12:34 51°25.981 2°48.429 6.9 329 5.3 103520 89
2003-03-18 09:12:38 51°25.982 2°48.429 7.4 330 5.3 103520 89
2003-03-18 09:12:44 51°25.982 2°48.429 6.7 327 5.3 103530 89
2003-03-18 09:12:48 51°25.983 2°48.428 7.1 329 5.3 103530 89
2003-03-18 09:12:54 51°25.984 2°48.427 7.4 330 5.3 103520 89
2003-03-18 09:12:59 51°25.985 2°48.426 7.2 329 5.3 103520 89
2003-03-18 09:13:03 51°25.985 2°48.426 7 329 5.3 103520 89
2003-03-18 09:13:09 51°25.986 2°48.425 7 329 5.3 103520 89
2003-03-18 09:13:14 51°25.986 2°48.424 7 326 5.3 103520 89
2003-03-18 09:13:18 51°25.986 2°48.423 7 325 5.3 103520 89
2003-03-18 09:13:24 51°25.987 2°48.422 6.8 327 5.3 103520 89
2003-03-18 09:13:29 51°25.988 2°48.421 6.9 326 5.3 103520 89
2003-03-18 09:13:34 51°25.988 2°48.42 6.8 324 5.2 103520 89
2003-03-18 09:13:38 51°25.988 2°48.419 6.3 326 5.2 103520 89
2003-03-18 09:13:42 51°25.988 2°48.418 6.6 329 5.2 103520 89
2003-03-18 09:13:48 51°25.988 2°48.417 6.4 325 5.2 103520 89
2003-03-18 09:13:54 51°25.989 2°48.416 6.5 321 5.2 103520 89
2003-03-18 09:13:58 51°25.989 2°48.415 6.5 327 5.2 103520 89
2003-03-18 09:14:04 51°25.989 2°48.413 6.7 327 5.2 103520 89
2003-03-18 09:14:08 51°25.989 2°48.412 6.7 327 5.2 103520 89
2003-03-18 09:14:13 51°25.989 2°48.411 6.3 326 5.2 103530 89
2003-03-18 09:14:19 51°25.989 2°48.41 6 330 5.2 103530 89
2003-03-18 09:14:24 51°25.989 2°48.409 6.7 333 5.2 103520 89
2003-03-18 09:14:28 51°25.989 2°48.408 6.3 334 5.2 103520 89
2003-03-18 09:14:32 51°25.988 2°48.407 6.5 335 5.2 103520 89
2003-03-18 09:14:38 51°25.988 2°48.406 6.3 337 5.2 103520 89
2003-03-18 09:14:44 51°25.987 2°48.405 6.4 339 5.2 103520 89
2003-03-18 09:14:49 51°25.987 2°48.404 6.4 339 5.2 103520 89
2003-03-18 09:14:54 51°25.986 2°48.403 6.5 339 5.2 103520 89
2003-03-18 09:14:58 51°25.986 2°48.402 5.9 345 5.2 103520 89
2003-03-18 09:15:04 51°25.985 2°48.401 5.5 341 5.2 103520 89
2003-03-18 09:15:08 51°25.985 2°48.399 6.2 341 5.2 103520 89
2003-03-18 09:15:13 51°25.985 2°48.398 6.1 344 5.2 103530 89
2003-03-18 09:15:18 51°25.984 2°48.396 6.2 344 5.2 103530 89
2003-03-18 09:15:24 51°25.984 2°48.395 6 346 5.2 103520 89
2003-03-18 09:15:28 51°25.983 2°48.395 5.6 354 5.2 103520 89
2003-03-18 09:15:34 51°25.983 2°48.394 6 356 5.3 103530 89
2003-03-18 09:15:38 51°25.982 2°48.394 6.7 359 5.3 103530 89
2003-03-18 09:15:44 51°25.981 2°48.394 6.4 2 5.3 103520 89
2003-03-18 09:15:49 51°25.98 2°48.394 6.7 3 5.3 103520 89
2003-03-18 09:15:54 51°25.979 2°48.395 5.9 1 5.3 103530 89
2003-03-18 09:15:58 51°25.979 2°48.395 6.7 5 5.3 103530 89
2003-03-18 09:16:04 51°25.977 2°48.395 6.4 7 5.3 103520 89
2003-03-18 09:16:08 51°25.977 2°48.395 6.3 5 5.3 103520 89
2003-03-18 09:16:14 51°25.976 2°48.395 6.3 1 5.3 103520 89
2003-03-18 09:16:18 51°25.975 2°48.395 6.2 359 5.3 103520 89
2003-03-18 09:16:24 51°25.975 2°48.396 6.8 5 5.3 103520 89
2003-03-18 09:16:28 51°25.974 2°48.396 6.7 2 5.3 103520 89
2003-03-18 09:16:34 51°25.973 2°48.397 6.7 357 5.3 103520 90
2003-03-18 09:16:38 51°25.973 2°48.397 6.6 356 5.3 103520 90
2003-03-18 09:16:44 51°25.972 2°48.397 6.4 352 5.4 103520 90
2003-03-18 09:16:49 51°25.971 2°48.398 6.5 353 5.4 103520 90
2003-03-18 09:16:54 51°25.971 2°48.398 6.6 351 5.4 103520 89
2003-03-18 09:16:58 51°25.971 2°48.398 6.8 348 5.4 103520 89
2003-03-18 09:17:04 51°25.97 2°48.398 6.7 349 5.4 103520 89
2003-03-18 09:17:08 51°25.97 2°48.398 6.7 348 5.4 103520 89
2003-03-18 09:17:14 51°25.97 2°48.398 6.6 345 5.4 103530 89
2003-03-18 09:17:19 51°25.97 2°48.398 7.1 345 5.4 103530 89
2003-03-18 09:17:24 51°25.969 2°48.398 6.8 343 5.4 103520 89
2003-03-18 09:17:29 51°25.969 2°48.399 6.4 340 5.4 103520 89
2003-03-18 09:17:34 51°25.969 2°48.399 6.6 340 5.4 103520 89
2003-03-18 09:17:38 51°25.969 2°48.399 6.7 339 5.4 103520 89
2003-03-18 09:17:44 51°25.969 2°48.399 6.3 338 5.4 103520 89
2003-03-18 09:17:48 51°25.969 2°48.399 6.6 345 5.4 103520 89
2003-03-18 09:17:53 51°25.97 2°48.398 6.4 341 5.4 103520 89
2003-03-18 09:17:58 51°25.97 2°48.398 6.1 338 5.4 103520 89
2003-03-18 09:18:04 51°25.97 2°48.398 5.9 338 5.4 103520 89
2003-03-18 09:18:09 51°25.97 2°48.397 6.4 343 5.4 103520 89
2003-03-18 09:18:12 51°25.97 2°48.398 5.8 345 5.4 103520 89
2003-03-18 09:18:18 51°25.97 2°48.399 6.2 336 5.4 103520 89
2003-03-18 09:18:23 51°25.97 2°48.399 6.5 344 5.4 103520 89
2003-03-18 09:18:29 51°25.97 2°48.399 7 342 5.4 103520 89
2003-03-18 09:18:34 51°25.97 2°48.399 7.4 341 5.4 103530 89
2003-03-18 09:18:38 51°25.97 2°48.399 6.9 344 5.4 103530 89
2003-03-18 09:18:44 51°25.97 2°48.4 7.2 341 5.4 103530 89
2003-03-18 09:18:48 51°25.97 2°48.4 7 338 5.4 103530 89
2003-03-18 09:18:54 51°25.97 2°48.4 6.8 335 5.4 103520 89
2003-03-18 09:18:58 51°25.97 2°48.4 6.4 335 5.4 103520 89
2003-03-18 09:19:04 51°25.97 2°48.4 6.5 335 5.4 103530 89
2003-03-18 09:19:08 51°25.97 2°48.4 6.8 332 5.4 103530 89